TimeCDT,TemperatureF,Dew PointF,Humidity,Sea Level PressureIn,VisibilityMPH,Wind Direction,Wind SpeedMPH,Gust SpeedMPH,PrecipitationIn,Events,Conditions,WindDirDegrees,DateUTC
12:55 AM,70.2,66.4,88,29.83,10.0,South,8.1,-,N/A,,Mostly Cloudy,170,2012-10-22 05:55:00
1:55 AM,69.1,66.4,91,29.81,10.0,SSE,8.1,-,N/A,,Clear,160,2012-10-22 06:55:00
2:55 AM,68.2,66.4,94,29.78,10.0,SSE,8.1,-,N/A,,Clear,150,2012-10-22 07:55:00
3:55 AM,68.5,66.9,95,29.77,10.0,South,9.2,-,N/A,,Clear,170,2012-10-22 08:55:00
4:55 AM,68.7,66.9,94,29.78,10.0,South,9.2,-,N/A,,Clear,170,2012-10-22 09:55:00
5:55 AM,67.6,67.3,99,29.78,10.0,South,10.4,-,N/A,,Clear,180,2012-10-22 10:55:00
6:55 AM,68.0,67.6,99,29.79,10.0,South,13.8,-,N/A,,Clear,190,2012-10-22 11:55:00
7:55 AM,67.6,67.3,99,29.80,10.0,South,12.7,-,N/A,,Clear,190,2012-10-22 12:55:00
8:14 AM,68.0,68.0,100,29.81,10.0,South,11.5,-,N/A,,Mostly Cloudy,190,2012-10-22 13:14:00
8:55 AM,69.8,69.6,99,29.82,10.0,SSW,13.8,-,N/A,,Overcast,200,2012-10-22 13:55:00
9:55 AM,72.5,69.4,90,29.82,10.0,SSW,16.1,-,N/A,,Overcast,210,2012-10-22 14:55:00
10:55 AM,75.2,69.1,81,29.82,10.0,SSW,18.4,25.3,N/A,,Mostly Cloudy,210,2012-10-22 15:55:00
11:55 AM,76.5,68.9,77,29.83,10.0,SW,18.4,24.2,N/A,,Overcast,220,2012-10-22 16:55:00
12:55 PM,77.2,68.9,76,29.83,10.0,SSW,17.3,-,N/A,,Overcast,210,2012-10-22 17:55:00
1:55 PM,79.7,68.5,69,29.80,10.0,SSW,20.7,27.6,N/A,,Mostly Cloudy,210,2012-10-22 18:55:00
2:55 PM,77.9,68.0,71,29.81,10.0,SSW,17.3,28.8,N/A,,Mostly Cloudy,210,2012-10-22 19:55:00
3:55 PM,75.9,67.3,74,29.83,10.0,SSW,17.3,-,N/A,,Overcast,210,2012-10-22 20:55:00
4:55 PM,75.0,67.8,78,29.83,10.0,SSW,12.7,-,N/A,,Mostly Cloudy,200,2012-10-22 21:55:00
5:55 PM,73.6,68.0,83,29.84,10.0,South,6.9,-,N/A,,Mostly Cloudy,170,2012-10-22 22:55:00
6:55 PM,73.2,67.5,82,29.84,10.0,South,8.1,-,N/A,,Scattered Clouds,170,2012-10-22 23:55:00
7:55 PM,73.9,67.1,79,29.85,10.0,SSW,15.0,-,N/A,,Scattered Clouds,200,2012-10-23 00:55:00
7:59 PM,73.4,68.0,83,29.85,10.0,South,13.8,-,N/A,,Light Drizzle,190,2012-10-23 00:59:00
8:12 PM,73.4,68.0,83,29.85,10.0,SSW,13.8,-,N/A,,Mostly Cloudy,200,2012-10-23 01:12:00
8:55 PM,72.0,68.0,87,29.85,10.0,South,15.0,-,0.00,,Mostly Cloudy,190,2012-10-23 01:55:00
9:55 PM,71.8,67.8,87,29.85,10.0,SSE,8.1,-,N/A,,Mostly Cloudy,160,2012-10-23 02:55:00
10:55 PM,69.4,68.0,95,29.86,10.0,South,8.1,-,0.00,,Mostly Cloudy,170,2012-10-23 03:55:00
11:55 PM,69.4,68.2,96,29.87,10.0,South,11.5,-,N/A,,Overcast,190,2012-10-23 04:55:00